x

Nantucket Sound (44020) Wave Buoy

11:50pm - Sat 25th Jun 2016 All times are EDT. -4 hours from GMT.

  • Sig Wave height 0.7ft
  • Average Period 4s
  • Wind
    7mph
  • Sea Temp 66°f
  • 空気 Temp 62°f
  • Sea Pressure 1022.6mb
  • Nantucket Sound
  • Nantucket Sound

More Historic Weather Station data

Upgrade to MSW Pro to gain access to the past 30 days of data for over 8000 Wavebouys and Weather Stations around the globe.

Join Pro

Comparision Forecast

View Surf forecast
   
Sat 06/25 11:50pm 0.7ft  -  4s 7
mph
1022.6mb 66f 62f
10:50pm 0.7ft  -  4s 4 7 mph 1023.3mb 66f 62f
9:50pm 0.7ft  -  4s 4
mph
1023.4mb 65f 62f
8:50pm 0.7ft  -  4s 2 4 mph 1023mb 66f 62f
5:50pm 1ft 4s 3s 11 13 mph 1022.5mb 68f 62f
4:50pm 1ft 8s 3s 13 16 mph 1022.1mb 68f 63f
3:50pm 1.3ft 2s 3s 13 16 mph 1022.1mb 68f 63f
2:50pm 1.3ft 3s 3s 13 16 mph 1022.6mb 68f 64f
1:50pm 1ft 3s 3s 13 16 mph 1022.6mb 68f 63f
12:50pm 0.7ft  -  3s 11 13 mph 1022.8mb 67f 63f
11:50am 0.7ft  -  3s 11 13 mph 1022.8mb 67f 63f
10:50am 1ft 5s 3s 11
mph
1022.9mb 67f 62f
9:50am 0.7ft  -  3s 9 11 mph 1022.7mb 65f 62f
8:50am 0.7ft  -  4s 9 11 mph 1022.7mb 65f 62f
7:50am 0.7ft  -  4s 9 11 mph 1022.2mb 65f 62f
6:50am 0.7ft  -  4s 11
mph
1021.8mb 65f 62f
5:50am 0.7ft  -  3s 11 13 mph 1021.1mb 66f 61f
4:50am 1ft 8s 3s 11 13 mph 1020.9mb 67f 61f
3:50am 1ft 7s 3s 9
mph
1020.6mb 67f 64f
2:50am 1ft 8s 3s 9 11 mph 1020.4mb 67f 65f
1:50am 1ft 3s 3s 11
mph
1020.4mb 67f 64f
12:50am 1ft 3s 3s 11 13 mph 1020.3mb 67f 65f
Fri 06/24 11:50pm 1ft 3s 3s 13 16 mph 1020.1mb 67f 65f
10:50pm 1ft 3s 3s 13 16 mph 1020.3mb 66f 64f
9:50pm 1ft 5s 3s 13 16 mph 1020.2mb 66f 64f
8:50pm 0.7ft  -  4s 11 16 mph 1019.8mb 66f 64f
7:50pm 0.7ft  -  4s 11
mph
1019.8mb 66f 63f
6:50pm 0.7ft  -  4s 11
mph
1019.8mb 67f 64f
5:50pm 1ft 6s 4s 11 13 mph 1019.6mb 67f 64f
4:50pm 1ft 5s 4s 11
mph
1019.6mb 68f 64f
3:50pm 1.3ft 3s 3s 13
mph
1019.1mb 68f 64f
2:50pm 1.3ft 3s 3s 11
mph
1019.2mb 68f 64f
1:50pm 1.3ft 3s 3s 11 13 mph 1019mb 67f 65f
12:50pm 1.3ft 3s 3s 13 16 mph 1018.6mb 67f 66f
11:50am 1.3ft 3s 3s 16 18 mph 1018mb 67f 67f
10:50am 1ft 3s 3s 16 18 mph 1017.5mb 67f 67f
9:50am 1ft 3s 3s 11 13 mph 1016.9mb 66f 67f
8:50am 1ft 3s 3s 9 11 mph 1016.4mb 66f 64f
7:50am 1ft 3s 3s 7 9 mph 1015.6mb 65f 64f
6:50am 0.7ft  -  3s 9 11 mph 1014.7mb 65f 65f
5:50am 0.7ft  -  3s 13 18 mph 1013.8mb 66f 65f
4:50am 0.7ft  -  3s 7 9 mph 1013.1mb 66f 67f
3:50am 1ft 5s 4s 4 7 mph 1012.4mb 67f 66f
2:50am 1ft 7s 4s 7 9 mph 1011.7mb 67f 66f
1:50am 1ft 4s 4s 7
mph
1011.8mb 67f 66f
12:50am 0.7ft  -  4s 7
mph
1011.7mb 67f 66f
Thu 06/23 11:50pm 0.7ft  -  4s 7 9 mph 1011.6mb 67f 66f
10:50pm 0.7ft  -  4s 9 11 mph 1011.4mb 67f 66f
9:50pm 1ft 5s 3s 7 9 mph 1010.9mb 66f 67f
8:50pm 1ft 2s 3s 9 11 mph 1010.4mb 66f 67f
7:50pm 1ft 3s 3s 9 11 mph 1010.1mb 66f 67f
6:50pm 1.3ft 3s 3s 11 13 mph 1010mb 66f 68f
5:50pm 1.3ft 3s 3s 13 16 mph 1010.2mb 67f 68f
4:50pm 1ft 3s 3s 9 11 mph 1010.4mb 67f 67f
3:50pm 1.3ft 3s 3s 11 13 mph 1010.4mb 68f 66f
2:50pm 1.3ft 6s 3s 16 18 mph 1010.7mb 68f 64f
1:50pm 1ft 7s 4s 9 11 mph 1011.2mb 68f 68f
12:50pm 0.7ft  -  4s 2
mph
1011.9mb 67f 68f
11:50am 0.7ft  -  4s  -  2 mph 1012.3mb 67f 69f
10:50am 0.7ft  -  4s 7
mph
1012.7mb 67f 67f
9:50am 0.7ft  -  3s 7
mph
1012.7mb 66f 67f
8:50am 1ft 5s 4s 7 9 mph 1012.9mb 65f 66f
7:50am 1ft 3s 3s 7
mph
1013mb 65f 66f
6:50am 1ft 3s 3s 7 9 mph 1012.7mb 65f 66f
5:50am 1.3ft 3s 3s 13 16 mph 1012.6mb 65f 66f
3:50am 1.3ft 3s 3s 16 20 mph 1012.3mb 66f 65f
2:50am 1.3ft 3s 4s 16 18 mph 1012.5mb 66f 64f
1:50am 1.6ft 3s 3s 16 20 mph 1012.7mb 66f 64f
12:50am 1.3ft 3s 3s 16 18 mph 1012.9mb 66f 65f
Wed 06/22 11:50pm 1ft 8s 3s 16 18 mph 1012.7mb 66f 65f
10:50pm 1ft 4s 3s 9 11 mph 1012.7mb 66f 65f
9:50pm 1ft 8s 4s 11 13 mph 1012.1mb 66f 65f
8:50pm 1ft 8s 4s 11 13 mph 1011.2mb 66f 64f
7:50pm 1.3ft 3s 3s 4
mph
1010.7mb 66f 66f
6:50pm 1.3ft 3s 3s 2
mph
1009.6mb 66f 67f
5:50pm 1.3ft 3s 4s 2 4 mph 1009.5mb 66f 67f
4:50pm 1.6ft 4s 4s 16 22 mph 1009.1mb 66f 65f
3:50pm 1.6ft 3s 3s 20 25 mph 1007.8mb 67f 65f
2:50pm 1.6ft 3s 3s 18 20 mph 1008.4mb 67f 65f
1:50pm 1.3ft 7s 4s 16 20 mph 1008.3mb 67f 65f
12:50pm 1ft 7s 4s 13 16 mph 1008.9mb 67f 66f
11:50am 1ft 7s 4s 13 18 mph 1009.5mb 67f 66f
10:50am 1ft 5s 4s 9 11 mph 1009.4mb 66f 67f
9:50am 1ft 3s 3s 9 11 mph 1009.3mb 66f 66f
8:50am 1ft 8s 4s 9 11 mph 1009.4mb 65f 66f
7:50am 1ft 8s 4s 9 11 mph 1009mb 65f 67f
6:50am 1ft 7s 5s 4 7 mph 1008.8mb 65f 67f
5:50am 0.7ft  -  5s 2
mph
1008.9mb 65f 67f